Eleonora E — MEDD4 — position and weather

sailwx.info

Track history (hours):
 
Tides and Currents Weather Stations Pressure Air Temp Water Temp Dewpoint Dewpoint Depression Visibility Wind Speed Wind Dir Waves Ship Positions

Eleonora E

Last reported at 2014-Aug-31 10:11 UTC. Time now 2014-Sep-03 07:13 UTC.
Position N 43°39' E 007°15'.

Length 50 m; draft 5.2 m.

Type: Sailing vessel. MMSI: 235008680.

Date/timePositionNaut miles runAvg speedWind from/ knotsBaromVisibWave heightAir tempDewpointWater temp
2014-Aug-31 10:11N 43°39' E 007°15'5 8.2
2014-Aug-31 09:32N 43°36' E 007°09'1 1.3
2014-Aug-31 08:33N 43°35' E 007°08'0 0.0
2014-Aug-31 07:33N 43°35' E 007°08'0 0.0
2014-Aug-31 06:33N 43°35' E 007°08'0 0.0
2014-Aug-31 05:33N 43°35' E 007°08'0 0.0
2014-Aug-31 04:33N 43°35' E 007°08'0 0.0
2014-Aug-31 03:33N 43°35' E 007°08'0 0.0
2014-Aug-31 02:33N 43°35' E 007°08'0 0.0
2014-Aug-31 01:33N 43°35' E 007°08'0 0.0
2014-Aug-31 00:33N 43°35' E 007°08'0 0.0
2014-Aug-30 23:33N 43°35' E 007°08'0 0.0
2014-Aug-30 22:33N 43°35' E 007°08'0 0.0
2014-Aug-30 21:33N 43°35' E 007°08'0 0.0
2014-Aug-30 20:33N 43°35' E 007°08'0 0.0
2014-Aug-30 19:33N 43°35' E 007°08'0 0.0
2014-Aug-30 18:33N 43°35' E 007°08'0 0.0
2014-Aug-30 17:33N 43°35' E 007°08'0 0.0
2014-Aug-30 16:33N 43°35' E 007°08'0 0.0
2014-Aug-30 15:33N 43°35' E 007°08'0 0.0
2014-Aug-30 14:33N 43°35' E 007°08'0 0.0
2014-Aug-30 13:33N 43°35' E 007°08'0 0.0
2014-Aug-30 12:33N 43°35' E 007°08'0 0.0
2014-Aug-30 11:33N 43°35' E 007°08'0 0.0
2014-Aug-30 10:33N 43°35' E 007°08'0 0.0
2014-Aug-30 09:33N 43°35' E 007°08'0 0.0
2014-Aug-30 08:33N 43°35' E 007°08'0 0.0
2014-Aug-30 07:33N 43°35' E 007°08'0 0.0
2014-Aug-30 06:33N 43°35' E 007°08'0 0.0
2014-Aug-30 05:33N 43°35' E 007°08'0 0.0
2014-Aug-30 04:33N 43°35' E 007°08'0 0.0
2014-Aug-30 03:33N 43°35' E 007°08'0 0.0
2014-Aug-30 02:33N 43°35' E 007°08'0 0.0
2014-Aug-30 01:33N 43°35' E 007°08'0 0.0
2014-Aug-30 00:33N 43°35' E 007°08'0 0.0
2014-Aug-29 23:33N 43°35' E 007°08'0 0.0
2014-Aug-29 22:33N 43°35' E 007°08'0 0.0
2014-Aug-29 21:33N 43°35' E 007°08'0 0.0
2014-Aug-29 20:33N 43°35' E 007°08'0 0.0
2014-Aug-29 19:33N 43°35' E 007°08'0 0.0
2014-Aug-29 18:33N 43°35' E 007°08'0 0.0
2014-Aug-29 17:33N 43°35' E 007°08'0 0.0
2014-Aug-29 16:33N 43°35' E 007°08'0 0.0
2014-Aug-29 15:33N 43°35' E 007°08'0 0.0
2014-Aug-29 14:33N 43°35' E 007°08'0 0.0
2014-Aug-29 13:33N 43°35' E 007°08'0 0.0
2014-Aug-29 12:33N 43°35' E 007°08'0 0.0
2014-Aug-29 11:33N 43°35' E 007°08'0 0.0
2014-Aug-29 10:33N 43°35' E 007°08'0 0.0
2014-Aug-29 09:33N 43°35' E 007°08'0 0.0
2014-Aug-29 08:33N 43°35' E 007°08'0 0.0
2014-Aug-29 07:33N 43°35' E 007°08'0 0.0
2014-Aug-29 06:33N 43°35' E 007°08'0 0.0
2014-Aug-29 05:33N 43°35' E 007°08'0 0.0
2014-Aug-29 04:33N 43°35' E 007°08'0 0.0
2014-Aug-29 03:33N 43°35' E 007°08'0 0.0
2014-Aug-29 02:33N 43°35' E 007°08'0 0.0
2014-Aug-29 01:33N 43°35' E 007°08'0 0.0
2014-Aug-29 00:33N 43°35' E 007°08'0 0.0
2014-Aug-28 23:33N 43°35' E 007°08'0 0.0
2014-Aug-28 22:33N 43°35' E 007°08'0 0.0
2014-Aug-28 21:33N 43°35' E 007°08'0 0.0
2014-Aug-28 20:33N 43°35' E 007°08'0 0.0
2014-Aug-28 19:33N 43°35' E 007°08'0 0.0
2014-Aug-28 18:33N 43°35' E 007°08'0 0.0
2014-Aug-28 17:33N 43°35' E 007°08'0 0.0
2014-Aug-28 16:33N 43°35' E 007°08'0 0.0
2014-Aug-28 15:33N 43°35' E 007°08'0 0.0
2014-Aug-28 14:33N 43°35' E 007°08'0 0.0
2014-Aug-28 13:33N 43°35' E 007°08'0 0.0
2014-Aug-28 12:33N 43°35' E 007°08'0 0.0
2014-Aug-28 11:33N 43°35' E 007°08'0 0.0
2014-Aug-28 10:33N 43°35' E 007°08'3 2.5
2014-Aug-28 09:33N 43°33' E 007°09'3 0.1
2014-Aug-26 15:33N 43°31' E 007°05'7 7.0
2014-Aug-26 14:32N 43°35' E 007°13'  
Track history (hours):
 
Tides and Currents Weather Stations Pressure Air Temp Water Temp Dewpoint Dewpoint Depression Visibility Wind Speed Wind Dir Waves Ship Positions

Eleonora E

Last reported at 2014-Aug-31 10:11 UTC. Time now 2014-Sep-03 07:13 UTC.
Position N 43°39' E 007°15'.

Length 50 m; draft 5.2 m.

Type: Sailing vessel. MMSI: 235008680.

Date/timePositionNaut miles runAvg speedWind from/ knotsBaromVisibWave heightAir tempDewpointWater temp
2014-Aug-31 10:11N 43°39' E 007°15'5 8.2
2014-Aug-31 09:32N 43°36' E 007°09'1 1.3
2014-Aug-31 08:33N 43°35' E 007°08'0 0.0
2014-Aug-31 07:33N 43°35' E 007°08'0 0.0
2014-Aug-31 06:33N 43°35' E 007°08'0 0.0
2014-Aug-31 05:33N 43°35' E 007°08'0 0.0
2014-Aug-31 04:33N 43°35' E 007°08'0 0.0
2014-Aug-31 03:33N 43°35' E 007°08'0 0.0
2014-Aug-31 02:33N 43°35' E 007°08'0 0.0
2014-Aug-31 01:33N 43°35' E 007°08'0 0.0
2014-Aug-31 00:33N 43°35' E 007°08'0 0.0
2014-Aug-30 23:33N 43°35' E 007°08'0 0.0
2014-Aug-30 22:33N 43°35' E 007°08'0 0.0
2014-Aug-30 21:33N 43°35' E 007°08'0 0.0
2014-Aug-30 20:33N 43°35' E 007°08'0 0.0
2014-Aug-30 19:33N 43°35' E 007°08'0 0.0
2014-Aug-30 18:33N 43°35' E 007°08'0 0.0
2014-Aug-30 17:33N 43°35' E 007°08'0 0.0
2014-Aug-30 16:33N 43°35' E 007°08'0 0.0
2014-Aug-30 15:33N 43°35' E 007°08'0 0.0
2014-Aug-30 14:33N 43°35' E 007°08'0 0.0
2014-Aug-30 13:33N 43°35' E 007°08'0 0.0
2014-Aug-30 12:33N 43°35' E 007°08'0 0.0
2014-Aug-30 11:33N 43°35' E 007°08'0 0.0
2014-Aug-30 10:33N 43°35' E 007°08'0 0.0
2014-Aug-30 09:33N 43°35' E 007°08'0 0.0
2014-Aug-30 08:33N 43°35' E 007°08'0 0.0
2014-Aug-30 07:33N 43°35' E 007°08'0 0.0
2014-Aug-30 06:33N 43°35' E 007°08'0 0.0
2014-Aug-30 05:33N 43°35' E 007°08'0 0.0
2014-Aug-30 04:33N 43°35' E 007°08'0 0.0
2014-Aug-30 03:33N 43°35' E 007°08'0 0.0
2014-Aug-30 02:33N 43°35' E 007°08'0 0.0
2014-Aug-30 01:33N 43°35' E 007°08'0 0.0
2014-Aug-30 00:33N 43°35' E 007°08'0 0.0
2014-Aug-29 23:33N 43°35' E 007°08'0 0.0
2014-Aug-29 22:33N 43°35' E 007°08'0 0.0
2014-Aug-29 21:33N 43°35' E 007°08'0 0.0
2014-Aug-29 20:33N 43°35' E 007°08'0 0.0
2014-Aug-29 19:33N 43°35' E 007°08'0 0.0
2014-Aug-29 18:33N 43°35' E 007°08'0 0.0
2014-Aug-29 17:33N 43°35' E 007°08'0 0.0
2014-Aug-29 16:33N 43°35' E 007°08'0 0.0
2014-Aug-29 15:33N 43°35' E 007°08'0 0.0
2014-Aug-29 14:33N 43°35' E 007°08'0 0.0
2014-Aug-29 13:33N 43°35' E 007°08'0 0.0
2014-Aug-29 12:33N 43°35' E 007°08'0 0.0
2014-Aug-29 11:33N 43°35' E 007°08'0 0.0
2014-Aug-29 10:33N 43°35' E 007°08'0 0.0
2014-Aug-29 09:33N 43°35' E 007°08'0 0.0
2014-Aug-29 08:33N 43°35' E 007°08'0 0.0
2014-Aug-29 07:33N 43°35' E 007°08'0 0.0
2014-Aug-29 06:33N 43°35' E 007°08'0 0.0
2014-Aug-29 05:33N 43°35' E 007°08'0 0.0
2014-Aug-29 04:33N 43°35' E 007°08'0 0.0
2014-Aug-29 03:33N 43°35' E 007°08'0 0.0
2014-Aug-29 02:33N 43°35' E 007°08'0 0.0
2014-Aug-29 01:33N 43°35' E 007°08'0 0.0
2014-Aug-29 00:33N 43°35' E 007°08'0 0.0
2014-Aug-28 23:33N 43°35' E 007°08'0 0.0
2014-Aug-28 22:33N 43°35' E 007°08'0 0.0
2014-Aug-28 21:33N 43°35' E 007°08'0 0.0
2014-Aug-28 20:33N 43°35' E 007°08'0 0.0
2014-Aug-28 19:33N 43°35' E 007°08'0 0.0
2014-Aug-28 18:33N 43°35' E 007°08'0 0.0
2014-Aug-28 17:33N 43°35' E 007°08'0 0.0
2014-Aug-28 16:33N 43°35' E 007°08'0 0.0
2014-Aug-28 15:33N 43°35' E 007°08'0 0.0
2014-Aug-28 14:33N 43°35' E 007°08'0 0.0
2014-Aug-28 13:33N 43°35' E 007°08'0 0.0
2014-Aug-28 12:33N 43°35' E 007°08'0 0.0
2014-Aug-28 11:33N 43°35' E 007°08'0 0.0
2014-Aug-28 10:33N 43°35' E 007°08'3 2.5
2014-Aug-28 09:33N 43°33' E 007°09'3 0.1
2014-Aug-26 15:33N 43°31' E 007°05'7 7.0
2014-Aug-26 14:32N 43°35' E 007°13'  

Dump ship's entire track history